createdAt,value
2023-01-08T00:01:05.818Z,100.00
2023-01-08T00:03:33.668Z,100.00
2023-01-08T00:06:03.024Z,100.00
2023-01-08T00:08:30.932Z,100.00
2023-01-08T00:10:59.005Z,100.00
2023-01-08T00:13:27.070Z,100.00
2023-01-08T00:15:56.452Z,100.00
2023-01-08T00:18:24.762Z,100.00
2023-01-08T00:20:52.634Z,70.59
2023-01-08T00:23:21.434Z,71.13
2023-01-08T00:25:49.196Z,100.00
2023-01-08T00:28:16.994Z,100.00
2023-01-08T00:30:44.991Z,100.00
2023-01-08T00:33:14.517Z,100.00
2023-01-08T00:35:42.555Z,100.00
2023-01-08T00:38:10.344Z,100.00
2023-01-08T00:40:40.298Z,100.00
2023-01-08T00:43:08.432Z,100.00
2023-01-08T00:45:36.521Z,100.00
2023-01-08T00:48:04.288Z,100.00
2023-01-08T00:50:33.402Z,100.00
2023-01-08T00:53:01.226Z,100.00
2023-01-08T00:55:29.033Z,100.00
2023-01-08T00:57:58.092Z,100.00
2023-01-08T01:00:26.003Z,100.00
2023-01-08T01:02:53.793Z,100.00
2023-01-08T01:05:21.583Z,100.00
2023-01-08T01:07:50.787Z,100.00
2023-01-08T01:10:18.839Z,100.00
2023-01-08T01:12:46.611Z,100.00
2023-01-08T01:15:17.045Z,100.00
2023-01-08T01:17:46.353Z,72.07
2023-01-08T01:20:15.963Z,100.00
2023-01-08T01:22:44.217Z,100.00
2023-01-08T01:25:13.332Z,100.00
2023-01-08T01:27:41.123Z,100.00
2023-01-08T01:30:10.625Z,100.00
2023-01-08T01:32:38.397Z,100.00
2023-01-08T01:35:07.205Z,100.00
2023-01-08T01:37:35.083Z,100.00
2023-01-08T01:40:03.002Z,100.00
2023-01-08T01:42:41.317Z,100.00
2023-01-08T01:45:19.123Z,100.00
2023-01-08T01:47:50.647Z,100.00
2023-01-08T01:50:23.914Z,100.00
2023-01-08T01:52:57.041Z,100.00
2023-01-08T01:55:27.222Z,100.00
2023-01-08T01:58:04.541Z,100.00
2023-01-08T02:00:33.647Z,100.00
2023-01-08T02:03:02.059Z,100.00
2023-01-08T02:05:42.025Z,100.00
2023-01-08T02:08:13.721Z,100.00
2023-01-08T02:10:49.464Z,100.00
2023-01-08T02:13:24.039Z,100.00
2023-01-08T02:15:58.117Z,100.00
2023-01-08T02:18:31.063Z,100.00
2023-01-08T02:21:03.664Z,72.22
2023-01-08T02:23:38.547Z,100.00
2023-01-08T02:26:13.526Z,100.00
2023-01-08T02:28:45.959Z,100.00
2023-01-08T02:31:14.372Z,100.00
2023-01-08T02:33:42.276Z,100.00
2023-01-08T02:36:31.256Z,100.00
2023-01-08T02:39:09.843Z,100.00
2023-01-08T02:41:52.997Z,100.00
2023-01-08T02:44:25.482Z,100.00
2023-01-08T02:46:55.392Z,100.00
2023-01-08T02:49:29.719Z,100.00
2023-01-08T02:52:01.296Z,100.00
2023-01-08T02:54:32.460Z,100.00
2023-01-08T02:57:06.845Z,100.00
2023-01-08T02:59:35.722Z,100.00
2023-01-08T03:02:04.399Z,100.00
2023-01-08T03:04:38.439Z,100.00
2023-01-08T03:07:06.199Z,100.00
2023-01-08T03:09:34.085Z,100.00
2023-01-08T03:12:07.119Z,100.00
2023-01-08T03:14:40.247Z,100.00
2023-01-08T03:17:14.083Z,100.00
2023-01-08T03:19:45.545Z,100.00
2023-01-08T03:22:16.824Z,100.00
2023-01-08T03:24:48.250Z,100.00
2023-01-08T03:27:19.963Z,100.00
2023-01-08T03:29:50.228Z,72.22
2023-01-08T03:32:19.911Z,100.00
2023-01-08T03:34:49.733Z,100.00
2023-01-08T03:37:22.228Z,100.00
2023-01-08T03:39:58.329Z,100.00
2023-01-08T03:42:29.883Z,100.00
2023-01-08T03:44:57.606Z,100.00
2023-01-08T03:47:28.127Z,100.00
2023-01-08T03:49:58.009Z,100.00
2023-01-08T03:52:28.036Z,100.00
2023-01-08T03:54:55.835Z,100.00
2023-01-08T03:57:24.047Z,100.00
2023-01-08T03:59:53.176Z,100.00
2023-01-08T04:02:21.194Z,100.00
2023-01-08T04:04:49.613Z,100.00
2023-01-08T04:07:17.461Z,100.00
2023-01-08T04:09:45.201Z,100.00
2023-01-08T04:12:12.925Z,100.00
2023-01-08T04:14:40.914Z,100.00
2023-01-08T04:17:12.330Z,100.00
2023-01-08T04:19:40.060Z,100.00
2023-01-08T04:22:07.950Z,100.00
2023-01-08T04:24:35.725Z,100.00
2023-01-08T04:27:03.608Z,100.00
2023-01-08T04:29:31.427Z,100.00
2023-01-08T04:31:59.203Z,100.00
2023-01-08T04:34:28.340Z,100.00
2023-01-08T04:36:56.109Z,100.00
2023-01-08T04:39:23.955Z,100.00
2023-01-08T04:41:51.720Z,100.00
2023-01-08T04:44:19.467Z,100.00
2023-01-08T04:46:47.229Z,100.00
2023-01-08T04:49:15.443Z,100.00
2023-01-08T04:51:44.696Z,100.00
2023-01-08T04:54:12.484Z,100.00
2023-01-08T04:56:40.214Z,100.00
2023-01-08T04:59:08.058Z,100.00
2023-01-08T05:01:35.933Z,100.00
2023-01-08T05:04:05.661Z,100.00
2023-01-08T05:06:34.040Z,100.00
2023-01-08T05:09:03.516Z,100.00
2023-01-08T05:11:31.351Z,100.00
2023-01-08T05:13:59.125Z,100.00
2023-01-08T05:16:26.877Z,100.00
2023-01-08T05:18:54.605Z,100.00
2023-01-08T05:21:22.386Z,100.00
2023-01-08T05:23:50.148Z,100.00
2023-01-08T05:26:19.797Z,100.00
2023-01-08T05:28:47.605Z,100.00
2023-01-08T05:31:15.728Z,100.00
2023-01-08T05:33:43.714Z,100.00
2023-01-08T05:36:13.708Z,100.00
2023-01-08T05:38:42.055Z,100.00
2023-01-08T05:41:10.729Z,100.00
2023-01-08T05:43:39.864Z,100.00
2023-01-08T05:46:07.803Z,100.00
2023-01-08T05:48:37.133Z,100.00
2023-01-08T05:51:05.511Z,100.00
2023-01-08T05:53:33.859Z,100.00
2023-01-08T05:56:03.105Z,100.00
2023-01-08T05:58:31.039Z,100.00
2023-01-08T06:01:05.983Z,100.00
2023-01-08T06:03:35.646Z,100.00
2023-01-08T06:06:05.216Z,100.00
2023-01-08T06:08:33.685Z,100.00
2023-01-08T06:11:01.769Z,100.00
2023-01-08T06:13:29.838Z,100.00
2023-01-08T06:16:00.122Z,100.00
2023-01-08T06:18:31.337Z,100.00
2023-01-08T06:20:59.076Z,100.00
2023-01-08T06:23:26.863Z,100.00
2023-01-08T06:25:54.903Z,100.00
2023-01-08T06:28:22.888Z,100.00
2023-01-08T06:30:51.032Z,100.00
2023-01-08T06:33:21.088Z,100.00
2023-01-08T06:35:50.520Z,100.00
2023-01-08T06:38:19.245Z,100.00
2023-01-08T06:40:47.237Z,100.00
2023-01-08T06:43:15.265Z,100.00
2023-01-08T06:45:43.063Z,100.00
2023-01-08T06:48:10.785Z,100.00
2023-01-08T06:50:38.543Z,100.00
2023-01-08T06:53:07.626Z,100.00
2023-01-08T06:55:35.542Z,100.00
2023-01-08T06:58:03.269Z,100.00
2023-01-08T07:00:31.169Z,100.00
2023-01-08T07:02:58.946Z,100.00
2023-01-08T07:05:27.056Z,100.00
2023-01-08T07:07:55.239Z,100.00
2023-01-08T07:10:24.422Z,100.00
2023-01-08T07:12:52.178Z,100.00
2023-01-08T07:15:19.938Z,100.00
2023-01-08T07:17:47.847Z,100.00
2023-01-08T07:20:15.857Z,100.00
2023-01-08T07:22:43.811Z,100.00
2023-01-08T07:25:11.996Z,100.00
2023-01-08T07:27:41.153Z,100.00
2023-01-08T07:30:18.093Z,100.00
2023-01-08T07:32:54.436Z,100.00
2023-01-08T07:35:22.238Z,100.00
2023-01-08T07:37:50.016Z,100.00
2023-01-08T07:40:17.787Z,100.00
2023-01-08T07:42:46.957Z,100.00
2023-01-08T07:45:14.750Z,100.00
2023-01-08T07:47:42.512Z,100.00
2023-01-08T07:50:10.818Z,100.00
2023-01-08T07:52:38.557Z,100.00
2023-01-08T07:55:06.716Z,100.00
2023-01-08T07:57:34.483Z,100.00
2023-01-08T08:00:05.433Z,100.00
2023-01-08T08:02:34.658Z,100.00
2023-01-08T08:05:02.944Z,100.00
2023-01-08T08:07:31.965Z,100.00
2023-01-08T08:09:59.991Z,100.00
2023-01-08T08:12:27.896Z,100.00
2023-01-08T08:14:55.742Z,100.00
2023-01-08T08:17:26.811Z,100.00
2023-01-08T08:19:54.684Z,100.00
2023-01-08T08:22:22.575Z,100.00
2023-01-08T08:24:50.462Z,100.00
2023-01-08T08:27:18.266Z,100.00
2023-01-08T08:29:46.048Z,100.00
2023-01-08T08:32:13.969Z,100.00
2023-01-08T08:34:43.159Z,100.00
2023-01-08T08:37:11.027Z,100.00
2023-01-08T08:39:38.959Z,100.00
2023-01-08T08:42:06.760Z,100.00
2023-01-08T08:44:34.646Z,100.00
2023-01-08T08:47:02.463Z,100.00
2023-01-08T08:49:30.204Z,100.00
2023-01-08T08:51:59.584Z,100.00
2023-01-08T08:54:27.302Z,100.00
2023-01-08T08:56:55.082Z,100.00
2023-01-08T08:59:22.836Z,100.00
2023-01-08T09:01:50.694Z,100.00
2023-01-08T09:04:18.468Z,100.00
2023-01-08T09:06:46.230Z,100.00
2023-01-08T09:09:15.952Z,100.00
2023-01-08T09:11:43.800Z,100.00
2023-01-08T09:14:11.796Z,100.00
2023-01-08T09:16:39.554Z,100.00
2023-01-08T09:19:07.483Z,100.00
2023-01-08T09:21:35.340Z,100.00
2023-01-08T09:24:03.091Z,100.00
2023-01-08T09:26:32.258Z,100.00
2023-01-08T09:29:00.636Z,100.00
2023-01-08T09:31:28.924Z,100.00
2023-01-08T09:33:56.677Z,100.00
2023-01-08T09:36:24.447Z,100.00
2023-01-08T09:38:52.190Z,100.00
2023-01-08T09:41:23.773Z,100.00
2023-01-08T09:43:55.401Z,100.00
2023-01-08T09:46:27.298Z,100.00
2023-01-08T09:48:58.609Z,100.00
2023-01-08T09:51:34.265Z,100.00
2023-01-08T09:54:02.919Z,100.00
2023-01-08T09:56:31.136Z,100.00
2023-01-08T09:59:03.016Z,100.00
2023-01-08T10:01:32.435Z,100.00
2023-01-08T10:04:06.318Z,100.00
2023-01-08T10:06:34.649Z,100.00
2023-01-08T10:09:02.924Z,100.00
2023-01-08T10:11:41.943Z,100.00
2023-01-08T10:14:21.970Z,100.00
2023-01-08T10:16:54.062Z,100.00
2023-01-08T10:19:22.757Z,100.00
2023-01-08T10:21:51.585Z,100.00
2023-01-08T10:24:31.332Z,100.00
2023-01-08T10:27:08.512Z,100.00
2023-01-08T10:29:39.849Z,100.00
2023-01-08T10:32:12.010Z,100.00
2023-01-08T10:34:46.993Z,100.00
2023-01-08T10:37:27.861Z,100.00
2023-01-08T10:40:01.856Z,100.00
2023-01-08T10:42:35.051Z,100.00
2023-01-08T10:45:08.843Z,100.00
2023-01-08T10:47:38.447Z,100.00
2023-01-08T10:50:19.716Z,100.00
2023-01-08T10:52:54.526Z,100.00
2023-01-08T10:55:27.953Z,100.00
2023-01-08T10:58:00.602Z,100.00
2023-01-08T11:00:32.033Z,100.00
2023-01-08T11:03:02.538Z,100.00
2023-01-08T11:05:35.291Z,100.00
2023-01-08T11:08:06.367Z,100.00
2023-01-08T11:10:36.047Z,100.00
2023-01-08T11:13:07.115Z,100.00
2023-01-08T11:15:39.786Z,100.00
2023-01-08T11:18:21.320Z,100.00
2023-01-08T11:20:50.101Z,73.94
2023-01-08T11:23:22.682Z,100.00
2023-01-08T11:25:57.149Z,100.00
2023-01-08T11:28:34.509Z,100.00
2023-01-08T11:31:14.754Z,74.42
2023-01-08T11:33:45.994Z,100.00
2023-01-08T11:36:23.560Z,100.00
2023-01-08T11:38:51.518Z,100.00
2023-01-08T11:41:45.793Z,100.00
2023-01-08T11:44:28.922Z,100.00
2023-01-08T11:47:06.811Z,100.00
2023-01-08T11:49:51.045Z,100.00
2023-01-08T11:52:32.134Z,100.00
2023-01-08T11:55:14.788Z,100.00
2023-01-08T11:57:57.816Z,100.00
2023-01-08T12:00:51.815Z,100.00
2023-01-08T12:03:31.654Z,100.00
2023-01-08T12:06:10.703Z,67.37
2023-01-08T12:08:48.370Z,65.38
2023-01-08T12:11:24.944Z,100.00
2023-01-08T12:14:19.567Z,100.00
2023-01-08T12:17:08.198Z,100.00
2023-01-08T12:19:51.808Z,100.00
2023-01-08T12:22:31.343Z,100.00
2023-01-08T12:25:27.356Z,100.00
2023-01-08T12:28:09.285Z,100.00
2023-01-08T12:30:47.965Z,100.00
2023-01-08T12:33:23.919Z,100.00
2023-01-08T12:35:58.585Z,100.00
2023-01-08T12:38:31.917Z,100.00
2023-01-08T12:41:02.761Z,100.00
2023-01-08T12:43:36.600Z,100.00
2023-01-08T12:46:06.236Z,100.00
2023-01-08T12:48:36.757Z,100.00
2023-01-08T12:51:18.275Z,63.74
2023-01-08T12:53:56.965Z,63.89
2023-01-08T12:56:36.597Z,62.67
2023-01-08T12:59:16.858Z,100.00
2023-01-08T13:01:50.540Z,100.00
2023-01-08T13:04:19.560Z,100.00
2023-01-08T13:06:53.854Z,100.00
2023-01-08T13:09:25.490Z,100.00
2023-01-08T13:11:54.951Z,100.00
2023-01-08T13:14:24.117Z,100.00
2023-01-08T13:17:04.062Z,100.00
2023-01-08T13:19:41.602Z,100.00
2023-01-08T13:22:24.889Z,100.00
2023-01-08T13:24:53.251Z,100.00
2023-01-08T13:27:30.486Z,100.00
2023-01-08T13:30:02.005Z,100.00
2023-01-08T13:32:45.656Z,100.00
2023-01-08T13:35:26.015Z,100.00
2023-01-08T13:38:14.359Z,100.00
2023-01-08T13:40:56.330Z,100.00
2023-01-08T13:43:28.186Z,100.00
2023-01-08T13:46:15.979Z,100.00
2023-01-08T13:48:51.381Z,100.00
2023-01-08T13:51:34.319Z,100.00
2023-01-08T13:54:16.716Z,100.00
2023-01-08T13:56:47.151Z,100.00
2023-01-08T13:59:24.784Z,100.00
2023-01-08T14:01:53.951Z,100.00
2023-01-08T14:04:22.882Z,100.00
2023-01-08T14:06:51.047Z,100.00
2023-01-08T14:09:23.776Z,100.00
2023-01-08T14:11:55.756Z,100.00
2023-01-08T14:14:25.581Z,100.00
2023-01-08T14:16:54.682Z,100.00
2023-01-08T14:19:24.319Z,100.00
2023-01-08T14:21:54.317Z,100.00
2023-01-08T14:24:25.956Z,100.00
2023-01-08T14:26:54.919Z,100.00
2023-01-08T14:29:24.770Z,100.00
2023-01-08T14:31:55.537Z,100.00
2023-01-08T14:34:24.637Z,100.00
2023-01-08T14:36:54.421Z,100.00
2023-01-08T14:39:26.083Z,100.00
2023-01-08T14:42:13.514Z,100.00
2023-01-08T14:44:46.930Z,100.00
2023-01-08T14:47:20.224Z,100.00
2023-01-08T14:49:52.217Z,62.67
2023-01-08T14:52:21.208Z,100.00
2023-01-08T14:54:53.971Z,100.00
2023-01-08T14:57:24.166Z,100.00
2023-01-08T14:59:56.198Z,100.00
2023-01-08T15:02:30.548Z,100.00
2023-01-08T15:05:16.251Z,100.00
2023-01-08T15:07:45.436Z,100.00
2023-01-08T15:10:42.411Z,100.00
2023-01-08T15:13:24.024Z,100.00
2023-01-08T15:15:57.952Z,100.00
2023-01-08T15:18:26.221Z,100.00
2023-01-08T15:20:55.296Z,100.00
2023-01-08T15:23:29.997Z,100.00
2023-01-08T15:25:59.300Z,100.00
2023-01-08T15:28:27.445Z,100.00
2023-01-08T15:30:58.164Z,100.00
2023-01-08T15:33:26.595Z,100.00
2023-01-08T15:35:54.663Z,100.00
2023-01-08T15:38:23.818Z,100.00
2023-01-08T15:40:54.089Z,100.00
2023-01-08T15:43:22.602Z,100.00
2023-01-08T15:45:51.517Z,100.00
2023-01-08T15:48:19.448Z,100.00
2023-01-08T15:50:47.569Z,100.00
2023-01-08T15:53:22.234Z,100.00
2023-01-08T15:55:50.512Z,80.66
2023-01-08T15:58:18.497Z,81.87
2023-01-08T16:00:47.851Z,82.54
2023-01-08T16:03:17.248Z,83.78
2023-01-08T16:05:45.257Z,83.96
2023-01-08T16:08:13.175Z,61.24
2023-01-08T16:10:41.008Z,100.00
2023-01-08T16:13:11.758Z,100.00
2023-01-08T16:15:40.528Z,100.00
2023-01-08T16:18:10.156Z,100.00
2023-01-08T16:20:39.210Z,100.00
2023-01-08T16:23:07.305Z,100.00
2023-01-08T16:25:35.130Z,100.00
2023-01-08T16:28:03.192Z,100.00
2023-01-08T16:30:31.062Z,100.00
2023-01-08T16:32:58.854Z,100.00
2023-01-08T16:35:28.080Z,100.00
2023-01-08T16:37:56.491Z,100.00
2023-01-08T16:40:24.328Z,100.00
2023-01-08T16:42:52.211Z,100.00
2023-01-08T16:45:19.991Z,100.00
2023-01-08T16:47:47.933Z,100.00
2023-01-08T16:50:16.329Z,100.00
2023-01-08T16:52:45.588Z,100.00
2023-01-08T16:55:13.456Z,100.00
2023-01-08T16:57:43.778Z,100.00
2023-01-08T17:00:13.149Z,100.00
2023-01-08T17:02:41.016Z,100.00
2023-01-08T17:05:09.379Z,78.71
2023-01-08T17:07:37.273Z,100.00
2023-01-08T17:10:07.815Z,100.00
2023-01-08T17:12:37.351Z,100.00
2023-01-08T17:15:08.530Z,100.00
2023-01-08T17:17:36.523Z,100.00
2023-01-08T17:20:05.019Z,100.00
2023-01-08T17:22:32.801Z,100.00
2023-01-08T17:25:00.753Z,100.00
2023-01-08T17:27:29.953Z,100.00
2023-01-08T17:29:58.344Z,100.00
2023-01-08T17:32:26.805Z,100.00
2023-01-08T17:34:54.837Z,100.00
2023-01-08T17:37:22.835Z,100.00
2023-01-08T17:39:50.870Z,100.00
2023-01-08T17:42:28.382Z,100.00
2023-01-08T17:45:01.316Z,100.00
2023-01-08T17:47:29.370Z,100.00
2023-01-08T17:49:58.588Z,100.00
2023-01-08T17:52:27.249Z,100.00
2023-01-08T17:54:55.072Z,100.00
2023-01-08T17:57:22.927Z,16.67
2023-01-08T17:59:50.711Z,16.47
2023-01-08T18:02:20.024Z,13.17
2023-01-08T18:04:48.375Z,12.97
2023-01-08T18:07:16.392Z,12.24
2023-01-08T18:09:44.772Z,11.44
2023-01-08T18:12:12.809Z,12.22
2023-01-08T18:14:41.467Z,12.58
2023-01-08T18:17:09.236Z,13.70
2023-01-08T18:19:38.340Z,14.33
2023-01-08T18:22:06.169Z,14.83
2023-01-08T18:24:34.510Z,14.08
2023-01-08T18:27:02.344Z,14.38
2023-01-08T18:29:30.464Z,14.39
2023-01-08T18:31:58.559Z,15.49
2023-01-08T18:34:26.545Z,14.72
2023-01-08T18:36:55.713Z,14.51
2023-01-08T18:39:23.530Z,13.95
2023-01-08T18:42:09.031Z,14.70
2023-01-08T18:44:36.760Z,14.48
2023-01-08T18:47:04.564Z,13.98
2023-01-08T18:49:32.443Z,13.50
2023-01-08T18:52:02.000Z,12.52
2023-01-08T18:54:29.896Z,12.69
2023-01-08T18:56:57.883Z,13.35
2023-01-08T18:59:25.785Z,13.90
2023-01-08T19:01:53.679Z,13.26
2023-01-08T19:04:21.659Z,12.85
2023-01-08T19:06:49.871Z,13.42
2023-01-08T19:09:19.312Z,13.20
2023-01-08T19:11:47.263Z,13.88
2023-01-08T19:14:15.370Z,14.29
2023-01-08T19:16:48.267Z,15.63
2023-01-08T19:19:16.315Z,14.83
2023-01-08T19:21:44.165Z,15.32
2023-01-08T19:24:11.932Z,14.82
2023-01-08T19:26:41.135Z,15.57
2023-01-08T19:29:09.097Z,15.36
2023-01-08T19:31:37.110Z,15.47
2023-01-08T19:34:05.888Z,15.64
2023-01-08T19:36:34.407Z,16.01
2023-01-08T19:39:03.811Z,15.63
2023-01-08T19:41:49.798Z,14.93
2023-01-08T19:44:19.021Z,15.13
2023-01-08T19:46:46.862Z,14.51
2023-01-08T19:49:14.642Z,15.62
2023-01-08T19:51:42.495Z,15.52
2023-01-08T19:54:13.393Z,14.99
2023-01-08T19:56:41.121Z,14.49
2023-01-08T19:59:08.915Z,14.33
2023-01-08T20:01:39.011Z,13.70
2023-01-08T20:04:06.943Z,12.98
2023-01-08T20:06:34.945Z,14.27
2023-01-08T20:09:03.356Z,17.32
2023-01-08T20:11:31.314Z,14.94
2023-01-08T20:14:00.472Z,13.32
2023-01-08T20:16:29.586Z,14.25
2023-01-08T20:19:02.013Z,13.47
2023-01-08T20:21:30.159Z,15.37
2023-01-08T20:23:59.642Z,13.73
2023-01-08T20:26:28.967Z,14.18
2023-01-08T20:28:58.799Z,14.23
2023-01-08T20:31:29.575Z,12.82
2023-01-08T20:34:00.083Z,14.56
2023-01-08T20:36:30.279Z,14.96
2023-01-08T20:38:59.616Z,13.39
2023-01-08T20:41:28.013Z,13.71
2023-01-08T20:43:57.103Z,14.79
2023-01-08T20:46:28.417Z,16.13
2023-01-08T20:48:59.645Z,15.42
2023-01-08T20:51:27.697Z,17.15
2023-01-08T20:53:55.565Z,15.18
2023-01-08T20:56:23.531Z,14.95
2023-01-08T20:58:51.469Z,13.31
2023-01-08T21:01:21.771Z,14.30
2023-01-08T21:03:51.849Z,13.14
2023-01-08T21:06:24.303Z,12.31
2023-01-08T21:08:53.816Z,13.38
2023-01-08T21:11:22.314Z,13.18
2023-01-08T21:13:50.886Z,13.91
2023-01-08T21:16:22.790Z,13.58
2023-01-08T21:18:51.336Z,14.26
2023-01-08T21:21:22.944Z,15.02
2023-01-08T21:23:52.024Z,14.73
2023-01-08T21:26:20.409Z,12.93
2023-01-08T21:28:49.743Z,100.00
2023-01-08T21:31:19.728Z,14.60
2023-01-08T21:33:48.989Z,15.71
2023-01-08T21:36:18.406Z,16.06
2023-01-08T21:38:48.253Z,16.13
2023-01-08T21:41:32.678Z,16.76
2023-01-08T21:44:17.741Z,16.17
2023-01-08T21:46:45.593Z,16.21
2023-01-08T21:49:13.818Z,15.88
2023-01-08T21:51:59.922Z,16.35
2023-01-08T21:54:29.052Z,16.58
2023-01-08T21:56:56.867Z,15.00
2023-01-08T21:59:24.695Z,15.74
2023-01-08T22:01:52.586Z,14.08
2023-01-08T22:04:20.478Z,15.00
2023-01-08T22:06:48.242Z,16.09
2023-01-08T22:09:16.020Z,14.42
2023-01-08T22:11:45.138Z,14.20
2023-01-08T22:14:12.869Z,14.56
2023-01-08T22:16:40.701Z,14.49
2023-01-08T22:19:08.509Z,14.84
2023-01-08T22:21:36.501Z,16.11
2023-01-08T22:24:04.375Z,14.98
2023-01-08T22:26:33.005Z,15.74
2023-01-08T22:29:02.159Z,15.80
2023-01-08T22:31:30.019Z,15.44
2023-01-08T22:33:58.022Z,15.06
2023-01-08T22:36:26.657Z,15.07
2023-01-08T22:38:54.363Z,14.44
2023-01-08T22:41:25.096Z,13.86
2023-01-08T22:43:56.854Z,12.87
2023-01-08T22:46:26.592Z,13.90
2023-01-08T22:48:54.617Z,12.81
2023-01-08T22:51:25.766Z,13.09
2023-01-08T22:53:55.170Z,13.58
2023-01-08T22:56:22.936Z,12.75
2023-01-08T22:58:51.005Z,12.67
2023-01-08T23:01:20.717Z,13.33
2023-01-08T23:03:51.414Z,15.11
2023-01-08T23:06:20.327Z,14.69
2023-01-08T23:08:48.665Z,12.96
2023-01-08T23:11:19.288Z,13.99
2023-01-08T23:13:47.633Z,13.05
2023-01-08T23:16:17.545Z,13.92
2023-01-08T23:18:45.834Z,13.90
2023-01-08T23:21:17.331Z,13.67
2023-01-08T23:23:45.686Z,12.84
2023-01-08T23:26:16.070Z,12.66
2023-01-08T23:28:44.111Z,13.02
2023-01-08T23:31:14.492Z,12.83
2023-01-08T23:33:42.465Z,12.58
2023-01-08T23:36:12.333Z,13.75
2023-01-08T23:38:41.420Z,14.41
2023-01-08T23:41:09.188Z,14.82
2023-01-08T23:43:36.849Z,13.80
2023-01-08T23:46:06.021Z,13.35
2023-01-08T23:48:34.715Z,13.64
2023-01-08T23:51:03.043Z,14.35
2023-01-08T23:53:33.205Z,14.49
2023-01-08T23:56:02.328Z,13.01
2023-01-08T23:58:30.119Z,13.71
